createdAt,value
2023-02-27T05:22:54.039Z,0.80
2023-02-27T05:26:19.334Z,0.85
2023-02-27T05:29:54.488Z,0.83
2023-02-27T05:33:20.593Z,0.86
2023-02-27T05:36:33.853Z,0.85
2023-02-27T05:39:41.062Z,0.86
2023-02-27T05:42:49.730Z,0.80
2023-02-27T05:45:59.714Z,0.79
2023-02-27T05:49:13.912Z,0.74
2023-02-27T05:52:22.718Z,0.72
2023-02-27T05:55:35.038Z,0.75
2023-02-27T05:58:51.111Z,0.85
2023-02-27T06:01:54.319Z,0.80
2023-02-27T06:04:57.262Z,0.79
2023-02-27T06:08:00.660Z,0.78
2023-02-27T06:11:05.010Z,0.77
2023-02-27T06:14:07.635Z,0.71
2023-02-27T06:17:10.442Z,0.78
2023-02-27T06:20:13.985Z,0.85
2023-02-27T06:23:17.298Z,0.87
2023-02-27T06:26:19.875Z,0.89
2023-02-27T06:29:23.154Z,0.86
2023-02-27T06:32:26.101Z,1.04
2023-02-27T06:35:29.466Z,1.07
2023-02-27T06:38:32.127Z,1.08
2023-02-27T06:41:35.739Z,1.19
2023-02-27T06:44:38.232Z,1.19
2023-02-27T06:47:41.783Z,1.40
2023-02-27T06:50:44.884Z,1.44
2023-02-27T06:53:47.739Z,1.44
2023-02-27T06:56:51.933Z,1.70
2023-02-27T06:59:54.830Z,1.78
2023-02-27T07:02:57.475Z,1.71
2023-02-27T07:06:00.412Z,1.87
2023-02-27T07:11:49.798Z,2.61
2023-02-27T07:14:53.657Z,2.61
2023-02-27T07:17:56.234Z,2.18
2023-02-27T07:20:59.321Z,2.11
2023-02-27T07:24:04.749Z,2.10
2023-02-27T07:27:07.662Z,2.30
2023-02-27T07:30:11.182Z,2.22
2023-02-27T07:33:14.121Z,2.21
2023-02-27T07:36:16.893Z,2.38
2023-02-27T07:39:19.703Z,2.43
2023-02-27T07:42:22.366Z,2.48
2023-02-27T07:45:25.722Z,2.54
2023-02-27T07:48:29.116Z,2.40
2023-02-27T07:51:32.083Z,2.47
2023-02-27T07:54:35.706Z,2.37
2023-02-27T07:57:38.961Z,2.72
2023-02-27T08:00:42.774Z,2.92
2023-02-27T08:03:48.785Z,2.97
2023-02-27T08:06:51.414Z,2.91
2023-02-27T08:09:54.444Z,3.10
2023-02-27T08:12:57.169Z,3.20
2023-02-27T08:16:00.155Z,3.40
2023-02-27T08:19:02.874Z,3.79
2023-02-27T08:22:05.701Z,3.57
2023-02-27T08:25:11.420Z,3.57
2023-02-27T08:28:14.518Z,3.32
2023-02-27T08:31:17.201Z,3.36
2023-02-27T08:34:20.228Z,3.51
2023-02-27T08:37:22.881Z,3.24
2023-02-27T08:40:25.964Z,3.26
2023-02-27T08:43:28.652Z,3.59
2023-02-27T08:46:31.815Z,3.40
2023-02-27T08:49:34.511Z,3.61
2023-02-27T08:52:37.694Z,3.91
2023-02-27T08:55:40.312Z,4.06
2023-02-27T08:58:43.138Z,4.06
2023-02-27T09:01:46.428Z,4.41
2023-02-27T09:04:49.367Z,4.34
2023-02-27T09:07:52.072Z,4.14
2023-02-27T09:10:58.477Z,4.40
2023-02-27T09:14:01.324Z,4.59
2023-02-27T09:17:04.410Z,4.80
2023-02-27T09:20:09.609Z,4.68
2023-02-27T09:23:13.074Z,5.09
2023-02-27T09:26:17.148Z,5.25
2023-02-27T09:29:21.385Z,4.80
2023-02-27T09:32:24.284Z,4.86
2023-02-27T09:35:28.156Z,5.00
2023-02-27T09:38:32.669Z,5.25
2023-02-27T09:41:39.333Z,5.13
2023-02-27T09:44:47.702Z,5.16
2023-02-27T09:48:00.017Z,5.14
2023-02-27T09:51:03.411Z,5.21
2023-02-27T09:54:06.438Z,5.52
2023-02-27T09:57:16.033Z,5.73
2023-02-27T10:00:38.289Z,6.24
2023-02-27T10:03:49.973Z,6.03
2023-02-27T10:07:03.471Z,5.58
2023-02-27T10:10:22.707Z,5.63
2023-02-27T10:13:53.983Z,5.98
2023-02-27T10:16:59.072Z,6.31
2023-02-27T10:20:06.759Z,6.37
2023-02-27T10:23:18.716Z,6.17
2023-02-27T10:26:33.231Z,6.30
2023-02-27T10:29:41.643Z,6.05
2023-02-27T10:32:45.743Z,6.13
2023-02-27T10:35:50.695Z,6.15
2023-02-27T10:38:58.812Z,6.49
2023-02-27T10:42:07.428Z,6.33
2023-02-27T10:45:15.863Z,6.55
2023-02-27T10:48:19.587Z,6.61
2023-02-27T10:51:29.186Z,6.24
2023-02-27T10:54:32.416Z,6.19
2023-02-27T10:57:42.986Z,6.26
2023-02-27T11:00:58.092Z,6.04
2023-02-27T11:04:00.882Z,6.03
2023-02-27T11:07:11.764Z,5.88
2023-02-27T11:10:14.485Z,6.46
2023-02-27T11:13:23.005Z,6.63
2023-02-27T11:16:25.723Z,6.99
2023-02-27T11:19:35.537Z,7.16
2023-02-27T11:22:38.297Z,7.18
2023-02-27T11:25:41.637Z,7.38
2023-02-27T11:28:44.296Z,7.08
2023-02-27T11:31:56.563Z,7.13
2023-02-27T11:34:59.399Z,6.95
2023-02-27T11:38:04.715Z,6.44
2023-02-27T11:41:09.074Z,6.37
2023-02-27T11:44:17.628Z,6.30
2023-02-27T11:47:38.636Z,6.79
2023-02-27T11:51:06.924Z,6.68
2023-02-27T11:54:28.834Z,6.94
2023-02-27T11:57:41.447Z,6.96
2023-02-27T12:01:03.500Z,7.58
2023-02-27T12:04:14.643Z,8.61
2023-02-27T12:07:21.940Z,9.26
2023-02-27T12:10:29.843Z,10.01
2023-02-27T12:13:38.459Z,11.41
2023-02-27T12:17:07.263Z,11.20
2023-02-27T12:20:20.628Z,10.98
2023-02-27T12:23:27.831Z,12.27
2023-02-27T12:26:37.494Z,11.00
2023-02-27T12:29:47.977Z,10.59
2023-02-27T12:33:13.336Z,10.59
2023-02-27T12:36:16.782Z,10.97
2023-02-27T12:39:24.157Z,10.90
2023-02-27T12:42:30.242Z,11.50
2023-02-27T12:46:00.383Z,11.67
2023-02-27T12:49:21.386Z,10.35
2023-02-27T12:52:23.983Z,9.75
2023-02-27T12:55:30.957Z,9.52
2023-02-27T12:58:45.979Z,8.94
2023-02-27T13:01:58.556Z,9.67
2023-02-27T13:05:13.988Z,9.56
2023-02-27T13:08:32.769Z,9.61
2023-02-27T13:11:45.437Z,9.40
2023-02-27T13:15:00.806Z,9.49
2023-02-27T13:18:45.470Z,9.82
2023-02-27T13:21:55.355Z,9.18
2023-02-27T13:25:02.016Z,8.27
2023-02-27T13:28:11.278Z,7.48
2023-02-27T13:31:27.124Z,7.43
2023-02-27T13:34:43.207Z,7.03
2023-02-27T13:38:13.812Z,6.99
2023-02-27T13:41:27.976Z,7.13
2023-02-27T13:44:40.965Z,7.45
2023-02-27T13:47:52.638Z,7.35
2023-02-27T13:50:55.332Z,7.42
2023-02-27T13:54:13.737Z,7.15
2023-02-27T13:57:21.550Z,7.02
2023-02-27T14:00:28.243Z,7.00
2023-02-27T14:03:32.239Z,7.00
2023-02-27T14:06:44.548Z,6.89
2023-02-27T14:09:51.724Z,6.78
2023-02-27T14:12:57.470Z,6.55
2023-02-27T14:16:03.244Z,6.66
2023-02-27T14:19:24.230Z,6.84
2023-02-27T14:22:30.095Z,6.70
2023-02-27T14:25:40.073Z,6.86
2023-02-27T14:28:55.650Z,6.84
2023-02-27T14:32:08.867Z,6.97
2023-02-27T14:35:16.031Z,6.83
2023-02-27T14:38:20.599Z,6.68
2023-02-27T14:41:31.760Z,6.46
2023-02-27T14:44:43.570Z,6.54
2023-02-27T14:47:47.320Z,6.30
2023-02-27T14:50:53.755Z,6.21
2023-02-27T14:54:18.340Z,6.15
2023-02-27T14:57:26.772Z,5.88
2023-02-27T15:00:50.666Z,5.74
2023-02-27T15:04:00.730Z,5.61
2023-02-27T15:07:04.191Z,5.51
2023-02-27T15:10:09.749Z,5.34
2023-02-27T15:13:22.031Z,5.19
2023-02-27T15:16:24.531Z,5.02
2023-02-27T15:19:30.178Z,4.81
2023-02-27T15:22:39.723Z,4.78
2023-02-27T15:25:43.418Z,4.76
2023-02-27T15:28:49.485Z,4.69
2023-02-27T15:31:53.230Z,4.60
2023-02-27T15:34:58.138Z,4.52
2023-02-27T15:38:02.592Z,4.31
2023-02-27T15:41:05.484Z,4.21
2023-02-27T15:44:10.714Z,4.26
2023-02-27T15:47:18.625Z,4.19
2023-02-27T15:50:26.352Z,4.03
2023-02-27T15:53:30.834Z,3.97
2023-02-27T15:56:37.089Z,3.82
2023-02-27T15:59:43.085Z,3.81
2023-02-27T16:02:50.314Z,3.69
2023-02-27T16:05:53.567Z,3.55
2023-02-27T16:09:17.733Z,3.50
2023-02-27T16:12:36.818Z,3.43
2023-02-27T16:15:40.280Z,3.34
2023-02-27T16:18:47.246Z,3.26
2023-02-27T16:22:22.767Z,3.23
2023-02-27T16:25:25.707Z,3.14
2023-02-27T16:28:41.881Z,3.05
2023-02-27T16:31:51.326Z,3.13
2023-02-27T16:35:15.783Z,3.07
2023-02-27T16:38:23.705Z,3.03
2023-02-27T16:41:27.975Z,3.05
2023-02-27T16:44:31.275Z,3.03
2023-02-27T16:47:34.087Z,2.99
2023-02-27T16:50:42.990Z,2.98
2023-02-27T16:53:49.150Z,3.11
2023-02-27T16:56:52.100Z,3.06
2023-02-27T16:59:54.714Z,3.00
